Aeroporto :
LOGIN :

Iscrizione | Disclaimer

   EN    FR    IT 

 










Sommario :    VFR   VFR Marginale   IFR   IFR Intensivo   IFR Molto Intensivo
Visibilità : 
Base nubi : 
>= 8 km
>= 3000ft
5 / 8 km
1000 / 3000 ft
1500m / 5 km
500 / 1000 ft
800 / 1500m
200 / 500 ft
< 800m
< 200 ft
Simboli :   Temporali  Nebbia  Neve Forte  Precipitazioni Forti  Vento > 20 kt
SIGMETs :   Varie  Temporali  Ghiacco  Turbolenza  Onda orograficha  Ceneri Vulcaniche







- Altitudine del aeroporto : 357 ft
- Codice IATA : TUF
- Carte del aeroporto


LFOT - Tours

ULTIMO METAR :
  • 240900Z AUTO 30004KT 260V350 9999 FEW011 OVC064 17/14 Q1018 NOSIG

METARs OBSOLETI :
  • 240830Z AUTO VRB03KT CAVOK 16/13 Q1018 NOSIG
  • 240800Z AUTO VRB03KT CAVOK 16/13 Q1018 NOSIG
  • 240730Z AUTO 31004KT 280V360 9999 FEW012 BKN058 OVC072 16/13 Q1017 NOSIG
  • 240700Z AUTO VRB03KT CAVOK 15/13 Q1017 NOSIG
  • 240630Z AUTO VRB02KT CAVOK 15/13 Q1017 NOSIG

TAF TAF LFOT
Valido dal 24 a 06 ore il 25 a 06 ore UTC


240500Z 2406/2506 VRB05KT CAVOK
PROB40
TEMPO 2415/2419 35010G20KT 4000 -TSRA SCT040CB
Nessun NOTAM noto per questo aeroporto.



MetMap, La meteo Aeronautica in un colpo d'occhio ! - Copyright ORBIFLY Dicembre 2007 - Disclaimer

ORBIFLY MET'MAP TEAM :

Programmazione e sviluppo : Alexandra Zaïnal
Concezione e sviluppo : Baudouin d'Aumeries
Co-Programmazione e sviluppo : Marc-Olivier Méhu
Supporto tecnico e logistico : Manuel Goepfert
Aiuto per la traduzione : Arnaldo La Scala

Contatto : metmap@orbifly.com




FONTI E CREDITI :

   NOAA